Time;durP1;ratioP1;P1;durP2;ratioP2;P2;SDS_P1;SDS_P2;PMS_P1;PMS_P2;Temp;Humidity;BMP_temperature;BMP_pressure;BME280_temperature;BME280_humidity;BME280_pressure;Samples;Min_cycle;Max_cycle;Signal;HPM_P1;HPM_P2
2023/12/23 00:01:48;;;;;;;11.15;1.88;;;8.30;99.90;;;;;;5020337;28;20026;-40
2023/12/23 00:04:14;;;;;;;5.43;1.20;;;8.40;99.90;;;;;;5029002;28;20129;-42
2023/12/23 00:06:39;;;;;;;10.00;1.50;;;8.30;99.90;;;;;;5032983;28;20068;-39
2023/12/23 00:09:05;;;;;;;12.10;1.20;;;8.30;99.90;;;;;;5034025;28;20025;-39
2023/12/23 00:11:31;;;;;;;10.07;1.42;;;8.40;99.90;;;;;;5033711;28;20021;-39
2023/12/23 00:13:56;;;;;;;6.70;2.38;;;8.40;99.90;;;;;;5033584;28;20049;-45
2023/12/23 00:16:24;;;;;;;10.48;1.23;;;8.40;99.90;;;;;;5034226;28;20474;-52
2023/12/23 00:18:49;;;;;;;13.38;1.23;;;8.40;99.90;;;;;;5034572;28;20498;-41
2023/12/23 00:21:15;;;;;;;8.57;0.90;;;8.40;99.90;;;;;;5032999;28;20098;-39
2023/12/23 00:23:41;;;;;;;6.38;0.95;;;8.50;99.90;;;;;;5034053;28;20029;-39
2023/12/23 00:26:06;;;;;;;18.42;1.25;;;8.50;99.90;;;;;;5032483;28;20083;-42
2023/12/23 00:28:32;;;;;;;9.02;1.13;;;8.50;99.90;;;;;;5034223;28;20033;-40
2023/12/23 00:30:58;;;;;;;10.98;1.60;;;8.50;99.90;;;;;;5033971;28;20485;-42
2023/12/23 00:33:23;;;;;;;4.60;0.70;;;8.50;99.90;;;;;;5032281;28;20532;-41
2023/12/23 00:35:49;;;;;;;3.05;1.02;;;8.50;99.90;;;;;;5033660;28;20108;-39
2023/12/23 00:38:14;;;;;;;4.70;1.13;;;8.50;99.90;;;;;;5034047;28;20021;-39
2023/12/23 00:40:40;;;;;;;11.82;1.50;;;8.50;99.90;;;;;;5033858;28;20083;-41
2023/12/23 00:43:06;;;;;;;4.85;1.80;;;8.50;99.90;;;;;;5032758;28;20428;-40
2023/12/23 00:45:31;;;;;;;8.07;0.93;;;8.50;99.90;;;;;;5032240;28;20024;-39
2023/12/23 00:47:57;;;;;;;16.35;1.80;;;8.50;99.90;;;;;;5033784;28;20029;-40
2023/12/23 00:50:23;;;;;;;8.48;1.92;;;8.50;99.90;;;;;;5033793;28;20033;-42
2023/12/23 00:52:48;;;;;;;11.43;1.38;;;8.60;99.90;;;;;;5033886;28;20030;-38
2023/12/23 00:55:14;;;;;;;4.20;1.40;;;8.60;99.90;;;;;;5033548;28;20120;-39
2023/12/23 00:57:40;;;;;;;5.15;1.50;;;8.70;99.90;;;;;;5031446;28;20034;-65
2023/12/23 01:00:06;;;;;;;10.40;1.63;;;8.70;99.90;;;;;;5018240;28;20087;-42
2023/12/23 01:02:32;;;;;;;8.00;1.00;;;8.70;99.90;;;;;;5033307;28;20022;-41
2023/12/23 01:04:58;;;;;;;16.40;1.52;;;8.70;99.90;;;;;;5034140;28;20568;-39
2023/12/23 01:07:23;;;;;;;5.80;1.20;;;8.60;99.90;;;;;;5033058;28;20083;-40
2023/12/23 01:09:49;;;;;;;4.22;1.20;;;8.60;99.90;;;;;;5033527;28;20026;-40
2023/12/23 01:12:15;;;;;;;2.63;0.45;;;8.50;99.90;;;;;;5031810;28;20041;-39
2023/12/23 01:14:40;;;;;;;4.57;1.33;;;8.50;99.90;;;;;;5032678;28;20037;-38
2023/12/23 01:17:06;;;;;;;6.93;1.30;;;8.50;99.90;;;;;;5033433;28;20511;-38
2023/12/23 01:19:32;;;;;;;5.93;0.90;;;8.40;99.90;;;;;;5064592;28;20024;-38
2023/12/23 01:21:57;;;;;;;10.48;1.58;;;8.40;99.90;;;;;;5033223;28;20025;-38
2023/12/23 01:24:23;;;;;;;6.40;0.90;;;8.40;99.90;;;;;;5032980;28;20028;-38
2023/12/23 01:26:48;;;;;;;3.78;1.15;;;8.40;99.90;;;;;;5019868;28;20037;-37
2023/12/23 01:29:14;;;;;;;11.90;1.30;;;8.30;99.90;;;;;;5030967;28;20068;-37
2023/12/23 01:31:40;;;;;;;2.00;0.57;;;8.30;99.90;;;;;;5031192;28;20084;-38
2023/12/23 01:34:05;;;;;;;2.03;0.50;;;8.30;99.90;;;;;;5033141;28;20025;-40
2023/12/23 01:36:31;;;;;;;4.15;0.73;;;8.30;99.90;;;;;;5032639;28;20079;-38
2023/12/23 01:38:57;;;;;;;9.15;0.82;;;8.40;99.90;;;;;;5033156;28;20421;-38
2023/12/23 01:41:22;;;;;;;7.93;0.85;;;8.40;99.90;;;;;;5032631;28;20018;-37
2023/12/23 01:43:48;;;;;;;8.85;1.00;;;8.40;99.90;;;;;;5032762;28;20025;-38
2023/12/23 01:46:14;;;;;;;6.32;0.93;;;8.40;99.90;;;;;;5032978;28;20088;-37
2023/12/23 01:48:42;;;;;;;13.15;0.93;;;8.40;99.90;;;;;;5031731;28;20095;-37
2023/12/23 01:51:09;;;;;;;11.27;0.93;;;8.50;99.90;;;;;;5032338;28;20033;-37
2023/12/23 01:53:35;;;;;;;10.68;2.30;;;8.50;99.90;;;;;;5032907;28;20053;-38
2023/12/23 01:56:01;;;;;;;6.18;0.73;;;8.60;99.90;;;;;;5030856;28;20037;-37
2023/12/23 01:58:27;;;;;;;3.08;1.30;;;8.60;99.90;;;;;;5032701;28;20025;-36
2023/12/23 02:00:53;;;;;;;4.05;0.90;;;8.60;99.90;;;;;;5031031;28;20018;-36
2023/12/23 02:03:19;;;;;;;4.57;1.40;;;8.60;99.90;;;;;;5032764;28;20036;-38
2023/12/23 02:05:45;;;;;;;11.75;1.75;;;8.70;99.90;;;;;;5032068;28;20094;-36
2023/12/23 02:08:12;;;;;;;7.22;1.83;;;8.70;99.90;;;;;;5032726;28;20529;-37
2023/12/23 02:10:38;;;;;;;15.60;1.70;;;8.70;99.90;;;;;;5030077;28;20481;-36
2023/12/23 02:13:21;;;;;;;14.75;1.45;;;8.80;99.90;;;;;;5032512;28;20633;-35
2023/12/23 02:15:47;;;;;;;3.95;0.77;;;8.80;99.90;;;;;;5032679;28;20604;-33
2023/12/23 02:18:13;;;;;;;2.55;1.00;;;8.60;99.90;;;;;;5032834;28;20022;-34
2023/12/23 02:20:39;;;;;;;3.80;0.57;;;8.50;99.90;;;;;;5032327;28;20363;-35
2023/12/23 02:23:05;;;;;;;5.95;1.10;;;8.30;99.90;;;;;;5032217;28;20109;-34
2023/12/23 02:25:31;;;;;;;12.75;0.70;;;8.20;99.90;;;;;;5032211;28;20031;-35
2023/12/23 02:28:01;;;;;;;5.65;0.95;;;8.20;99.90;;;;;;5030901;28;20525;-66
2023/12/23 02:30:28;;;;;;;8.73;1.58;;;8.30;99.90;;;;;;5032362;28;20037;-38
2023/12/23 02:32:54;;;;;;;12.70;1.67;;;8.40;99.90;;;;;;5031945;28;20079;-37
2023/12/23 02:35:24;;;;;;;13.85;1.55;;;8.60;99.90;;;;;;5032262;28;20084;-37
2023/12/23 02:37:50;;;;;;;10.60;1.70;;;8.70;99.90;;;;;;5032777;28;20393;-35
2023/12/23 02:40:16;;;;;;;12.65;2.22;;;8.80;99.90;;;;;;5031015;28;20025;-37
2023/12/23 02:42:41;;;;;;;12.85;1.60;;;8.80;99.90;;;;;;5032025;28;20490;-37
2023/12/23 02:45:08;;;;;;;9.43;1.42;;;8.90;99.90;;;;;;5032318;28;20025;-36
2023/12/23 02:47:33;;;;;;;1.98;1.10;;;8.90;99.90;;;;;;5032857;28;20478;-37
2023/12/23 02:49:59;;;;;;;8.27;1.45;;;8.90;99.90;;;;;;5035778;28;20031;-36
2023/12/23 02:52:24;;;;;;;4.78;1.50;;;8.90;99.90;;;;;;5035799;28;20100;-37
2023/12/23 02:54:50;;;;;;;6.15;1.55;;;9.00;99.90;;;;;;5034564;28;20493;-36
2023/12/23 02:57:16;;;;;;;17.95;1.88;;;9.00;99.90;;;;;;5035863;28;20033;-36
2023/12/23 02:59:42;;;;;;;8.13;1.77;;;9.00;99.90;;;;;;5035968;28;20025;-36
2023/12/23 03:02:07;;;;;;;10.52;1.90;;;9.00;99.90;;;;;;5033845;28;20105;-36
2023/12/23 03:04:34;;;;;;;14.68;1.48;;;9.00;99.90;;;;;;5035653;28;20029;-36
2023/12/23 03:07:00;;;;;;;10.75;2.08;;;9.00;99.90;;;;;;5035577;28;20061;-35
2023/12/23 03:09:26;;;;;;;10.20;1.60;;;9.00;99.90;;;;;;5035640;28;20026;-35
2023/12/23 03:11:52;;;;;;;9.43;1.20;;;9.10;99.90;;;;;;5034718;28;20056;-42
2023/12/23 03:14:18;;;;;;;7.40;1.30;;;9.20;99.90;;;;;;5035244;28;20501;-35
2023/12/23 03:16:43;;;;;;;11.30;1.55;;;9.20;99.90;;;;;;5035391;28;20025;-36
2023/12/23 03:19:09;;;;;;;10.23;1.33;;;9.20;99.90;;;;;;5035286;28;20044;-35
2023/12/23 03:21:41;;;;;;;13.15;1.52;;;9.30;99.90;;;;;;5035379;28;20398;-36
2023/12/23 03:24:07;;;;;;;14.60;2.40;;;9.30;99.90;;;;;;5035125;28;20025;-37
2023/12/23 03:26:32;;;;;;;12.10;1.50;;;9.30;99.90;;;;;;5035147;28;20502;-35
2023/12/23 03:28:58;;;;;;;7.00;1.60;;;9.40;99.90;;;;;;5034805;28;20293;-35
2023/12/23 03:31:23;;;;;;;3.88;1.48;;;9.40;99.90;;;;;;5035002;28;20057;-36
2023/12/23 03:33:49;;;;;;;13.00;1.63;;;9.40;99.90;;;;;;5035420;28;20370;-35
2023/12/23 03:36:17;;;;;;;9.43;1.70;;;9.50;99.90;;;;;;5034839;28;20033;-35
2023/12/23 03:38:42;;;;;;;15.98;2.40;;;9.50;99.90;;;;;;5034993;28;20474;-35
2023/12/23 03:41:10;;;;;;;9.63;0.98;;;9.50;99.90;;;;;;5033705;28;20079;-36
2023/12/23 03:43:36;;;;;;;13.45;1.48;;;9.60;99.90;;;;;;5035244;28;20029;-34
2023/12/23 03:46:02;;;;;;;9.95;1.52;;;9.70;99.90;;;;;;5035099;28;20482;-36
2023/12/23 03:48:27;;;;;;;9.02;1.27;;;9.70;99.90;;;;;;5035431;28;20465;-34
2023/12/23 03:50:53;;;;;;;4.45;1.23;;;9.70;99.90;;;;;;5034850;28;20022;-35
2023/12/23 03:53:19;;;;;;;9.07;1.00;;;9.70;99.90;;;;;;5034667;28;20053;-35
2023/12/23 03:55:44;;;;;;;11.02;1.27;;;9.70;99.90;;;;;;5034433;28;20112;-35
2023/12/23 03:58:10;;;;;;;5.63;0.85;;;9.70;99.90;;;;;;5034618;28;20119;-42
2023/12/23 04:00:35;;;;;;;4.72;1.17;;;9.70;99.90;;;;;;5032349;28;20044;-35
2023/12/23 04:03:01;;;;;;;13.07;2.30;;;9.70;99.90;;;;;;5034649;28;20025;-35
2023/12/23 04:05:27;;;;;;;18.25;2.00;;;9.80;99.90;;;;;;5033025;28;20032;-35
2023/12/23 04:07:53;;;;;;;8.68;1.10;;;9.80;99.90;;;;;;5034017;28;20033;-35
2023/12/23 04:10:18;;;;;;;21.15;2.50;;;9.80;99.90;;;;;;5033954;28;20024;-36
2023/12/23 04:12:44;;;;;;;13.88;1.50;;;9.80;99.90;;;;;;5034408;28;20049;-35
2023/12/23 04:15:10;;;;;;;5.63;0.73;;;9.80;99.90;;;;;;5034451;28;20033;-35
2023/12/23 04:17:36;;;;;;;12.48;1.13;;;9.80;99.90;;;;;;5034031;28;20449;-35
2023/12/23 04:20:02;;;;;;;13.52;0.93;;;9.80;99.90;;;;;;5034308;28;20108;-35
2023/12/23 04:22:27;;;;;;;17.08;1.20;;;9.80;99.90;;;;;;5034547;28;20109;-35
2023/12/23 04:24:53;;;;;;;7.78;1.83;;;9.80;99.90;;;;;;5033757;28;20026;-36
2023/12/23 04:27:19;;;;;;;15.60;1.45;;;9.90;99.90;;;;;;5032475;28;20015;-49
2023/12/23 04:29:44;;;;;;;4.35;0.93;;;9.90;99.90;;;;;;5034009;28;20021;-49
2023/12/23 04:32:10;;;;;;;4.20;0.80;;;9.90;99.90;;;;;;5034075;28;20021;-48
2023/12/23 04:34:39;;;;;;;6.05;1.23;;;9.90;99.90;;;;;;5034098;28;20505;-46
2023/12/23 04:37:04;;;;;;;7.72;1.67;;;9.90;99.90;;;;;;5034157;28;20035;-49
2023/12/23 04:39:30;;;;;;;16.85;2.28;;;9.90;99.90;;;;;;5033897;28;20029;-60
2023/12/23 04:41:56;;;;;;;7.50;1.10;;;9.90;99.90;;;;;;5033638;28;20026;-49
2023/12/23 04:44:22;;;;;;;8.38;1.17;;;9.90;99.90;;;;;;5032703;28;20458;-50
2023/12/23 04:46:50;;;;;;;11.10;1.63;;;9.90;99.90;;;;;;5033909;28;20033;-49
2023/12/23 04:49:16;;;;;;;11.77;2.25;;;9.90;99.90;;;;;;5032191;28;20029;-49
2023/12/23 04:51:44;;;;;;;12.88;1.75;;;9.90;99.90;;;;;;5033872;28;20055;-49
2023/12/23 04:54:13;;;;;;;5.20;1.23;;;9.90;99.90;;;;;;5033875;28;20033;-47
2023/12/23 04:56:40;;;;;;;6.00;0.90;;;10.00;99.90;;;;;;5025450;28;20524;-50
2023/12/23 04:59:06;;;;;;;7.25;0.90;;;10.00;99.90;;;;;;5033790;28;20060;-50
2023/12/23 05:01:32;;;;;;;3.17;1.35;;;10.10;99.90;;;;;;5032205;28;20021;-49
2023/12/23 05:03:57;;;;;;;7.85;1.02;;;10.00;99.90;;;;;;5033767;28;20079;-36
2023/12/23 05:06:23;;;;;;;6.63;1.02;;;10.00;99.90;;;;;;5032816;28;20025;-36
2023/12/23 05:08:49;;;;;;;13.93;1.40;;;10.00;99.90;;;;;;5033647;28;20454;-35
2023/12/23 05:11:14;;;;;;;8.70;1.63;;;10.00;99.90;;;;;;5032480;28;20083;-36
2023/12/23 05:13:40;;;;;;;12.30;1.52;;;9.90;99.90;;;;;;5033184;28;20056;-35
2023/12/23 05:16:06;;;;;;;5.35;1.60;;;10.00;99.90;;;;;;5033156;28;20492;-37
2023/12/23 05:18:32;;;;;;;6.75;1.83;;;10.00;99.90;;;;;;5031039;28;20029;-37
2023/12/23 05:20:57;;;;;;;17.20;1.83;;;10.00;99.90;;;;;;5033426;28;20383;-37
2023/12/23 05:23:23;;;;;;;10.85;1.20;;;10.10;99.90;;;;;;5033364;28;20025;-43
2023/12/23 05:25:50;;;;;;;5.82;1.02;;;10.00;99.90;;;;;;5032954;28;20021;-38
2023/12/23 05:28:16;;;;;;;7.93;1.10;;;10.10;99.90;;;;;;5033216;28;20033;-36
2023/12/23 05:30:42;;;;;;;6.28;1.15;;;10.00;99.90;;;;;;5031541;28;20421;-36
2023/12/23 05:33:08;;;;;;;9.57;1.33;;;10.10;99.90;;;;;;5033527;28;20060;-37
2023/12/23 05:35:33;;;;;;;7.55;1.45;;;10.00;99.90;;;;;;5032731;28;20036;-38
2023/12/23 05:37:59;;;;;;;7.03;1.23;;;10.00;99.90;;;;;;5033129;28;20092;-36
2023/12/23 05:40:24;;;;;;;11.18;1.95;;;10.00;99.90;;;;;;5032637;28;20022;-37
2023/12/23 05:42:50;;;;;;;12.27;1.50;;;10.00;99.90;;;;;;5032751;28;20080;-35
2023/12/23 05:45:16;;;;;;;8.90;1.20;;;10.00;99.90;;;;;;5032602;28;20112;-36
2023/12/23 05:47:43;;;;;;;5.25;1.70;;;10.00;99.90;;;;;;5033060;28;20105;-38
2023/12/23 05:50:10;;;;;;;7.47;0.88;;;10.00;99.90;;;;;;5032771;28;20025;-36
2023/12/23 05:52:36;;;;;;;6.28;1.95;;;10.00;99.90;;;;;;5031323;28;20040;-36
2023/12/23 05:55:02;;;;;;;6.00;0.98;;;10.00;99.90;;;;;;5032344;28;20520;-36
2023/12/23 05:57:27;;;;;;;24.27;1.75;;;9.90;99.90;;;;;;5032853;28;20052;-36
2023/12/23 05:59:53;;;;;;;21.95;2.38;;;9.90;99.90;;;;;;5032795;28;20029;-36
2023/12/23 06:02:19;;;;;;;9.60;1.63;;;9.90;99.90;;;;;;5032410;28;20013;-39
2023/12/23 06:04:44;;;;;;;12.38;0.88;;;9.80;99.90;;;;;;5032532;28;20052;-36
2023/12/23 06:07:10;;;;;;;6.93;1.20;;;9.80;99.90;;;;;;5032476;28;20029;-62
2023/12/23 06:09:37;;;;;;;7.05;1.13;;;9.80;99.90;;;;;;5032563;28;20613;-35
2023/12/23 06:12:02;;;;;;;13.95;1.42;;;9.80;99.90;;;;;;5032220;28;20025;-35
2023/12/23 06:14:28;;;;;;;7.75;1.90;;;9.80;99.90;;;;;;5032390;28;20056;-39
2023/12/23 06:16:54;;;;;;;10.82;1.70;;;9.80;99.90;;;;;;5031748;28;20026;-36
2023/12/23 06:19:19;;;;;;;14.25;2.35;;;9.70;99.90;;;;;;5032063;28;20099;-38
2023/12/23 06:21:46;;;;;;;10.95;1.95;;;9.80;99.90;;;;;;5032762;28;20061;-36
2023/12/23 06:24:13;;;;;;;23.73;2.63;;;9.80;99.90;;;;;;5035636;28;20104;-36
2023/12/23 06:26:38;;;;;;;8.38;1.60;;;9.80;99.90;;;;;;5036562;28;20504;-37
2023/12/23 06:29:04;;;;;;;25.25;1.85;;;9.90;99.90;;;;;;5036725;28;20021;-37
2023/12/23 06:31:29;;;;;;;12.07;2.58;;;9.90;99.90;;;;;;5019378;28;20053;-37
2023/12/23 06:33:55;;;;;;;14.20;1.70;;;9.90;99.90;;;;;;5018964;28;20100;-53
2023/12/23 06:36:21;;;;;;;11.98;1.38;;;9.90;99.90;;;;;;5035886;28;20446;-51
2023/12/23 06:38:46;;;;;;;12.13;1.77;;;9.90;99.90;;;;;;5036241;28;20398;-52
2023/12/23 06:41:12;;;;;;;21.35;3.35;;;10.00;99.90;;;;;;5035865;28;20021;-53
2023/12/23 06:43:38;;;;;;;6.90;1.52;;;9.90;99.90;;;;;;5036232;28;20017;-52
2023/12/23 06:46:04;;;;;;;11.05;4.35;;;10.00;99.90;;;;;;5035257;28;20064;-52
2023/12/23 06:48:29;;;;;;;8.02;2.20;;;10.00;99.90;;;;;;5016705;28;20113;-54
2023/12/23 06:50:55;;;;;;;11.00;1.45;;;10.00;99.90;;;;;;5018240;28;20060;-48
2023/12/23 06:53:21;;;;;;;23.23;2.65;;;10.00;99.90;;;;;;5035701;28;20033;-51
2023/12/23 06:55:46;;;;;;;12.27;1.52;;;10.10;99.90;;;;;;5035494;28;20083;-50
2023/12/23 06:58:12;;;;;;;14.52;2.35;;;10.20;99.90;;;;;;5035672;28;20451;-52
2023/12/23 07:00:38;;;;;;;13.82;1.60;;;10.20;99.90;;;;;;5034301;28;20052;-51
2023/12/23 07:03:05;;;;;;;11.55;2.53;;;10.20;99.90;;;;;;5034657;28;20083;-50
2023/12/23 07:05:31;;;;;;;16.95;1.88;;;10.20;99.90;;;;;;5035097;28;20029;-50
2023/12/23 07:07:56;;;;;;;10.63;1.58;;;10.20;99.90;;;;;;5035281;28;20536;-50
2023/12/23 07:10:22;;;;;;;12.40;1.42;;;10.20;99.90;;;;;;5034267;28;20426;-51
2023/12/23 07:12:48;;;;;;;13.65;2.63;;;10.20;99.90;;;;;;5034925;28;20420;-49
2023/12/23 07:15:13;;;;;;;16.10;2.50;;;10.20;99.90;;;;;;5035535;28;20540;-47
2023/12/23 07:17:39;;;;;;;8.80;1.88;;;10.30;99.90;;;;;;5035625;28;20036;-38
2023/12/23 07:20:05;;;;;;;13.95;1.75;;;10.20;99.90;;;;;;5035197;28;20508;-39
2023/12/23 07:22:31;;;;;;;11.75;1.27;;;10.30;99.90;;;;;;5035508;28;20532;-37
2023/12/23 07:24:57;;;;;;;9.48;1.58;;;10.30;99.90;;;;;;5035261;28;20029;-38
2023/12/23 07:27:22;;;;;;;10.10;1.80;;;10.30;99.90;;;;;;5034900;28;20025;-37
2023/12/23 07:29:48;;;;;;;11.70;2.03;;;10.40;99.90;;;;;;5036727;28;20017;-43
2023/12/23 07:32:14;;;;;;;10.15;1.52;;;10.40;99.90;;;;;;5034628;28;20421;-41
2023/12/23 07:34:40;;;;;;;10.02;1.30;;;10.30;99.90;;;;;;5034688;28;20071;-36
2023/12/23 07:37:05;;;;;;;16.02;1.73;;;10.30;99.90;;;;;;5029931;28;20371;-40
2023/12/23 07:39:31;;;;;;;9.70;1.73;;;10.30;99.90;;;;;;5034785;28;20531;-37
2023/12/23 07:41:57;;;;;;;16.35;2.00;;;10.30;99.90;;;;;;5034979;28;20470;-39
2023/12/23 07:44:24;;;;;;;5.80;1.50;;;10.30;99.90;;;;;;5035519;28;20462;-37
2023/12/23 07:46:50;;;;;;;15.07;1.90;;;10.30;99.90;;;;;;5034601;28;20033;-38
2023/12/23 07:49:15;;;;;;;16.63;2.55;;;10.40;99.90;;;;;;5035245;28;20409;-38
2023/12/23 07:51:41;;;;;;;4.57;2.33;;;10.40;99.90;;;;;;5034967;28;20032;-39
2023/12/23 07:54:07;;;;;;;4.63;1.33;;;10.40;99.90;;;;;;5035072;28;20096;-38
2023/12/23 07:56:33;;;;;;;10.90;1.60;;;10.40;99.90;;;;;;5030048;28;20029;-37
2023/12/23 07:58:58;;;;;;;15.15;1.50;;;10.40;99.90;;;;;;5034858;28;20025;-38
2023/12/23 08:01:24;;;;;;;17.70;2.00;;;10.50;99.90;;;;;;5033637;28;20470;-40
2023/12/23 08:03:50;;;;;;;9.48;2.22;;;10.50;99.90;;;;;;5034605;28;20024;-40
2023/12/23 08:06:18;;;;;;;10.40;1.55;;;10.40;99.90;;;;;;5034182;28;20494;-38
2023/12/23 08:08:44;;;;;;;13.95;1.45;;;10.40;99.90;;;;;;5033568;28;20028;-40
2023/12/23 08:11:10;;;;;;;16.25;1.30;;;10.50;99.90;;;;;;5034329;28;20032;-38
2023/12/23 08:13:36;;;;;;;12.13;1.25;;;10.50;99.90;;;;;;5034561;28;20679;-56
2023/12/23 08:16:02;;;;;;;13.93;1.88;;;10.50;99.90;;;;;;5034188;28;20025;-38
2023/12/23 08:18:29;;;;;;;13.75;1.45;;;10.50;99.90;;;;;;5034917;28;20386;-38
2023/12/23 08:20:55;;;;;;;7.88;1.35;;;10.50;99.90;;;;;;5021888;28;20036;-38
2023/12/23 08:23:20;;;;;;;8.15;1.30;;;10.50;99.90;;;;;;5014730;28;20026;-37
2023/12/23 08:25:47;;;;;;;5.07;1.23;;;10.50;99.90;;;;;;5023503;28;20141;-39
2023/12/23 08:28:12;;;;;;;11.18;1.88;;;10.50;99.90;;;;;;5014628;28;20394;-39
2023/12/23 08:30:39;;;;;;;15.75;2.65;;;10.50;99.90;;;;;;5026500;28;20104;-40
2023/12/23 08:33:05;;;;;;;10.07;1.75;;;10.50;99.90;;;;;;5034276;28;20029;-41
2023/12/23 08:35:31;;;;;;;7.07;1.10;;;10.40;99.90;;;;;;5033865;28;20037;-39
2023/12/23 08:37:58;;;;;;;10.77;1.75;;;10.50;99.90;;;;;;5033018;28;20099;-39
2023/12/23 08:40:24;;;;;;;7.15;1.20;;;10.60;99.90;;;;;;5033482;28;20028;-52
2023/12/23 08:42:50;;;;;;;12.60;1.92;;;10.60;99.90;;;;;;5033786;28;20029;-49
2023/12/23 08:45:17;;;;;;;11.38;1.77;;;10.60;99.90;;;;;;5033034;28;20374;-48
2023/12/23 08:47:42;;;;;;;5.40;0.98;;;10.60;99.90;;;;;;5033797;28;20501;-53
2023/12/23 08:50:08;;;;;;;2.45;1.10;;;10.60;99.90;;;;;;5034051;28;20029;-53
2023/12/23 08:52:34;;;;;;;14.00;1.35;;;10.50;99.90;;;;;;5033926;28;20025;-52
2023/12/23 08:55:00;;;;;;;8.57;0.90;;;10.60;99.90;;;;;;5033224;28;20024;-50
2023/12/23 08:57:25;;;;;;;9.35;0.90;;;10.60;99.90;;;;;;5033786;28;20029;-52
2023/12/23 08:59:51;;;;;;;7.38;1.88;;;10.60;99.90;;;;;;5032606;28;20521;-49
2023/12/23 09:02:16;;;;;;;13.90;1.50;;;10.50;99.90;;;;;;5033395;28;20067;-50
2023/12/23 09:04:42;;;;;;;16.35;1.40;;;10.50;99.90;;;;;;5033934;28;20022;-52
2023/12/23 09:07:08;;;;;;;12.30;1.73;;;10.50;99.90;;;;;;5033190;28;20021;-50
2023/12/23 09:09:34;;;;;;;9.05;2.15;;;10.60;99.90;;;;;;5033280;28;20040;-51
2023/12/23 09:11:59;;;;;;;5.55;1.90;;;10.70;99.90;;;;;;5033030;28;20382;-51
2023/12/23 09:14:26;;;;;;;8.05;1.42;;;10.60;99.90;;;;;;5033382;28;20043;-53
2023/12/23 09:16:52;;;;;;;11.38;2.00;;;10.60;99.90;;;;;;5032391;28;20037;-53
2023/12/23 09:19:17;;;;;;;4.68;0.95;;;10.60;99.90;;;;;;5032704;28;20442;-52
2023/12/23 09:21:43;;;;;;;10.48;1.52;;;10.60;99.90;;;;;;5033007;28;20029;-50
2023/12/23 09:24:08;;;;;;;12.85;2.75;;;10.60;99.90;;;;;;5064813;28;20390;-54
2023/12/23 09:26:35;;;;;;;8.25;1.40;;;10.70;99.90;;;;;;5032260;28;20079;-52
2023/12/23 09:29:01;;;;;;;6.93;1.25;;;10.70;99.90;;;;;;5032928;28;20025;-53
2023/12/23 09:31:26;;;;;;;12.70;1.35;;;10.70;99.90;;;;;;5032542;28;20038;-50
2023/12/23 09:33:52;;;;;;;15.95;1.70;;;10.70;99.90;;;;;;5032799;28;20029;-53
2023/12/23 09:36:18;;;;;;;8.32;0.90;;;10.70;99.90;;;;;;5032918;28;20026;-51
2023/12/23 09:38:43;;;;;;;7.28;1.13;;;10.70;99.90;;;;;;5032804;28;20040;-59
2023/12/23 09:41:09;;;;;;;10.75;2.33;;;10.60;99.90;;;;;;5032183;28;20026;-53
2023/12/23 09:43:35;;;;;;;5.60;2.15;;;10.60;99.90;;;;;;5032513;28;20029;-50
2023/12/23 09:46:03;;;;;;;8.40;3.28;;;10.70;99.90;;;;;;5032381;28;20029;-53
2023/12/23 09:48:29;;;;;;;8.10;1.60;;;10.70;99.90;;;;;;5032693;28;20378;-53
2023/12/23 09:50:54;;;;;;;7.32;0.93;;;10.70;99.90;;;;;;5033028;28;20030;-54
2023/12/23 09:53:21;;;;;;;8.93;1.50;;;10.60;99.90;;;;;;5032877;28;20031;-53
2023/12/23 09:55:46;;;;;;;9.13;0.82;;;10.70;99.90;;;;;;5031826;28;20398;-53
2023/12/23 09:58:13;;;;;;;2.40;0.73;;;10.70;99.90;;;;;;5031444;28;20018;-52
2023/12/23 10:00:39;;;;;;;12.50;1.10;;;10.70;99.90;;;;;;5032955;28;20421;-53
2023/12/23 10:03:05;;;;;;;11.02;1.73;;;10.70;99.90;;;;;;5025608;28;20043;-53
2023/12/23 10:05:31;;;;;;;12.35;1.27;;;10.80;99.90;;;;;;5029988;28;20454;-53
2023/12/23 10:07:57;;;;;;;7.57;1.38;;;10.80;99.90;;;;;;5032230;28;20049;-53
2023/12/23 10:10:26;;;;;;;6.88;1.02;;;10.80;99.90;;;;;;5030058;28;20467;-52
2023/12/23 10:12:53;;;;;;;7.85;1.20;;;10.90;99.90;;;;;;5032111;28;20136;-51
2023/12/23 10:15:19;;;;;;;8.70;1.30;;;10.90;99.90;;;;;;5035339;28;20481;-53
2023/12/23 10:17:44;;;;;;;7.90;0.90;;;10.90;99.90;;;;;;5031242;28;20477;-53
2023/12/23 10:20:13;;;;;;;7.68;1.92;;;10.90;99.90;;;;;;5032249;28;20123;-51
2023/12/23 10:22:44;;;;;;;19.85;2.28;;;10.90;99.90;;;;;;5029473;28;20079;-55
2023/12/23 10:25:10;;;;;;;8.43;1.95;;;10.90;99.90;;;;;;5031915;28;20481;-55
2023/12/23 10:27:40;;;;;;;9.63;1.58;;;11.00;99.90;;;;;;5031288;28;20325;-51
2023/12/23 10:30:08;;;;;;;9.02;1.45;;;11.00;99.90;;;;;;5030447;28;20498;-54
2023/12/23 10:32:36;;;;;;;7.28;1.27;;;11.00;99.90;;;;;;5032000;28;20053;-52
2023/12/23 10:35:05;;;;;;;5.03;0.80;;;11.10;99.90;;;;;;5031598;28;20026;-54
2023/12/23 10:37:32;;;;;;;12.82;1.98;;;11.10;99.90;;;;;;5030976;28;20021;-53
2023/12/23 10:40:24;;;;;;;6.07;1.00;;;11.10;99.90;;;;;;5032079;28;20026;-53
2023/12/23 10:42:51;;;;;;;5.32;1.00;;;11.20;99.90;;;;;;5033792;28;20498;-52
2023/12/23 10:45:17;;;;;;;6.55;0.98;;;11.10;99.90;;;;;;5032296;28;20166;-53
2023/12/23 10:47:43;;;;;;;9.57;0.93;;;11.10;99.90;;;;;;5032048;28;20104;-54
2023/12/23 10:50:09;;;;;;;10.05;1.25;;;11.10;99.90;;;;;;5032094;28;20034;-54
2023/12/23 10:52:36;;;;;;;6.82;0.88;;;11.10;99.90;;;;;;5031830;28;20485;-55
2023/12/23 10:55:03;;;;;;;5.43;0.73;;;11.20;99.90;;;;;;5031911;28;20532;-54
2023/12/23 10:57:29;;;;;;;6.88;1.13;;;11.20;99.90;;;;;;5028223;28;20056;-55
2023/12/23 10:59:54;;;;;;;12.63;2.42;;;11.20;99.90;;;;;;5032247;28;20428;-52
2023/12/23 11:02:28;;;;;;;6.55;1.20;;;11.30;99.90;;;;;;5031841;28;20100;-52
2023/12/23 11:04:55;;;;;;;6.45;1.02;;;11.30;99.90;;;;;;5030956;28;20036;-53
2023/12/23 11:07:29;;;;;;;4.20;1.93;;;11.30;99.90;;;;;;5017004;28;20478;-54
2023/12/23 11:10:00;;;;;;;4.47;0.52;;;11.30;99.90;;;;;;5027658;28;20044;-54
2023/12/23 11:12:26;;;;;;;7.72;1.58;;;11.40;99.90;;;;;;5034476;28;20021;-54
2023/12/23 11:14:51;;;;;;;4.88;0.77;;;11.30;99.90;;;;;;5035191;28;20029;-56
2023/12/23 11:17:25;;;;;;;11.93;1.23;;;11.30;99.90;;;;;;5034336;28;20057;-50
2023/12/23 11:19:54;;;;;;;4.57;0.90;;;11.40;99.90;;;;;;5034152;28;20032;-54
2023/12/23 11:22:21;;;;;;;12.93;1.10;;;11.40;99.90;;;;;;5030601;28;20539;-50
2023/12/23 11:24:47;;;;;;;1.70;0.68;;;11.30;99.90;;;;;;5034637;28;20026;-54
2023/12/23 11:27:29;;;;;;;5.68;0.77;;;11.50;99.90;;;;;;5035276;28;20040;-54
2023/12/23 11:29:54;;;;;;;11.13;1.08;;;11.50;99.90;;;;;;5033772;28;20386;-49
2023/12/23 11:32:24;;;;;;;12.00;1.20;;;11.50;99.90;;;;;;5033530;28;20021;-54
2023/12/23 11:34:50;;;;;;;8.18;0.82;;;11.60;99.90;;;;;;5035407;28;20539;-50
2023/12/23 11:37:16;;;;;;;5.03;0.70;;;11.50;99.90;;;;;;5035048;28;20509;-52
2023/12/23 11:39:42;;;;;;;12.50;1.30;;;11.50;99.90;;;;;;5033701;28;20021;-54
2023/12/23 11:42:08;;;;;;;7.68;1.15;;;11.50;99.90;;;;;;5035575;28;20522;-53
2023/12/23 11:44:36;;;;;;;3.42;1.40;;;11.50;99.90;;;;;;5067257;28;20497;-54
2023/12/23 11:47:02;;;;;;;9.13;1.02;;;11.50;99.90;;;;;;5035138;28;20489;-54
2023/12/23 11:49:28;;;;;;;9.48;1.00;;;11.50;99.90;;;;;;5035100;28;20470;-54
2023/12/23 11:51:54;;;;;;;4.75;0.90;;;11.40;99.90;;;;;;5035387;28;20032;-55
2023/12/23 11:54:21;;;;;;;7.20;2.30;;;11.40;99.90;;;;;;5035038;28;20462;-52
2023/12/23 11:56:46;;;;;;;4.70;0.75;;;11.40;99.90;;;;;;5034651;28;20043;-54
2023/12/23 11:59:12;;;;;;;11.05;1.48;;;11.40;99.90;;;;;;5034500;28;20025;-53
2023/12/23 12:01:38;;;;;;;6.20;0.93;;;11.50;99.90;;;;;;5034550;28;20474;-56
2023/12/23 12:04:05;;;;;;;5.72;1.02;;;11.60;99.90;;;;;;5035165;28;20401;-54
2023/12/23 12:06:30;;;;;;;11.82;2.03;;;11.40;99.90;;;;;;5034960;28;20025;-53
2023/12/23 12:08:57;;;;;;;5.55;1.75;;;11.50;99.90;;;;;;5034649;28;20077;-53
2023/12/23 12:11:24;;;;;;;5.38;0.98;;;11.50;99.90;;;;;;5034320;28;20022;-57
2023/12/23 12:13:50;;;;;;;3.47;1.00;;;11.40;99.90;;;;;;5034275;28;20053;-54
2023/12/23 12:16:17;;;;;;;8.93;1.00;;;11.40;99.90;;;;;;5034082;28;20102;-51
2023/12/23 12:18:42;;;;;;;4.32;0.93;;;11.50;99.90;;;;;;5034425;28;20014;-54
2023/12/23 12:21:08;;;;;;;11.23;0.82;;;11.40;99.90;;;;;;5034457;28;20359;-51
2023/12/23 12:23:34;;;;;;;7.75;1.42;;;11.50;99.90;;;;;;5034426;28;20551;-55
2023/12/23 12:26:00;;;;;;;5.88;2.03;;;11.50;99.90;;;;;;5034164;28;20501;-55
2023/12/23 12:28:27;;;;;;;7.60;1.38;;;11.50;99.90;;;;;;5034381;28;20034;-53
2023/12/23 12:30:52;;;;;;;4.18;1.08;;;11.40;99.90;;;;;;5034289;28;20482;-54
2023/12/23 12:33:18;;;;;;;5.75;0.77;;;11.40;99.90;;;;;;5034247;28;20099;-55
2023/12/23 12:35:46;;;;;;;5.90;1.70;;;11.40;99.90;;;;;;5033577;28;20117;-53
2023/12/23 12:38:12;;;;;;;5.43;1.35;;;11.40;99.90;;;;;;5034059;28;20386;-54
2023/12/23 12:40:39;;;;;;;7.50;1.30;;;11.40;99.90;;;;;;5033696;28;20442;-53
2023/12/23 12:43:05;;;;;;;3.47;0.88;;;11.30;99.90;;;;;;5033848;28;20485;-59